createdAt,value
2023-05-12T00:00:22.028Z,14.50
2023-05-12T00:03:00.704Z,14.60
2023-05-12T00:05:31.714Z,14.60
2023-05-12T00:08:05.966Z,14.50
2023-05-12T00:10:35.654Z,14.50
2023-05-12T00:13:05.180Z,14.50
2023-05-12T00:15:35.651Z,14.50
2023-05-12T00:18:06.384Z,14.50
2023-05-12T00:20:39.713Z,14.50
2023-05-12T00:23:09.674Z,14.50
2023-05-12T00:25:39.383Z,14.50
2023-05-12T00:28:10.246Z,14.50
2023-05-12T00:30:52.356Z,14.50
2023-05-12T00:33:29.047Z,14.50
2023-05-12T00:36:06.436Z,14.50
2023-05-12T00:38:40.528Z,14.50
2023-05-12T00:41:16.988Z,14.40
2023-05-12T00:43:50.002Z,14.40
2023-05-12T00:46:19.825Z,14.40
2023-05-12T00:48:51.761Z,14.30
2023-05-12T00:51:21.008Z,14.30
2023-05-12T00:53:51.261Z,14.40
2023-05-12T00:56:23.132Z,14.30
2023-05-12T00:59:00.980Z,14.40
2023-05-12T01:01:39.491Z,14.40
2023-05-12T01:04:13.699Z,14.40
2023-05-12T01:07:06.945Z,14.40
2023-05-12T01:09:38.966Z,14.40
2023-05-12T01:12:09.002Z,14.40
2023-05-12T01:14:44.238Z,14.40
2023-05-12T01:17:15.315Z,14.40
2023-05-12T01:19:54.512Z,14.40
2023-05-12T01:22:26.180Z,14.50
2023-05-12T01:25:00.715Z,14.50
2023-05-12T01:27:35.443Z,14.50
2023-05-12T01:30:10.443Z,14.50
2023-05-12T01:32:41.529Z,14.50
2023-05-12T01:35:14.884Z,14.50
2023-05-12T01:37:50.437Z,14.50
2023-05-12T01:40:22.973Z,14.40
2023-05-12T01:42:55.234Z,14.40
2023-05-12T01:45:29.207Z,14.40
2023-05-12T01:48:00.281Z,14.50
2023-05-12T01:50:29.596Z,14.40
2023-05-12T01:53:05.869Z,14.50
2023-05-12T01:55:35.790Z,14.50
2023-05-12T01:58:07.416Z,14.50
2023-05-12T02:00:46.602Z,14.50
2023-05-12T02:03:38.162Z,14.50
2023-05-12T02:06:16.411Z,14.40
2023-05-12T02:08:47.418Z,14.40
2023-05-12T02:11:16.252Z,14.40
2023-05-12T02:13:46.636Z,14.40
2023-05-12T02:16:18.883Z,14.40
2023-05-12T02:18:52.051Z,14.40
2023-05-12T02:21:32.946Z,14.40
2023-05-12T02:24:05.373Z,14.40
2023-05-12T02:26:46.355Z,14.40
2023-05-12T02:29:28.001Z,14.40
2023-05-12T02:31:59.497Z,14.40
2023-05-12T02:34:32.438Z,14.40
2023-05-12T02:37:01.094Z,14.30
2023-05-12T02:39:34.852Z,14.30
2023-05-12T02:42:04.283Z,14.40
2023-05-12T02:44:34.648Z,14.30
2023-05-12T02:47:10.533Z,14.30
2023-05-12T02:49:42.792Z,14.40
2023-05-12T02:52:17.558Z,14.30
2023-05-12T02:54:49.697Z,14.30
2023-05-12T02:57:22.673Z,14.30
2023-05-12T03:00:03.119Z,14.20
2023-05-12T03:02:39.609Z,14.30
2023-05-12T03:05:13.403Z,14.20
2023-05-12T03:07:46.513Z,14.20
2023-05-12T03:10:29.740Z,14.20
2023-05-12T03:13:03.675Z,14.20
2023-05-12T03:15:34.358Z,14.30
2023-05-12T03:18:07.774Z,14.30
2023-05-12T03:20:39.032Z,14.30
2023-05-12T03:23:09.711Z,14.30
2023-05-12T03:25:41.260Z,14.30
2023-05-12T03:28:15.803Z,14.30
2023-05-12T03:30:58.889Z,14.30
2023-05-12T03:33:28.496Z,14.20
2023-05-12T03:35:59.791Z,14.30
2023-05-12T03:38:34.515Z,14.30
2023-05-12T03:41:05.583Z,14.30
2023-05-12T03:43:39.702Z,14.30
2023-05-12T03:46:12.217Z,14.30
2023-05-12T03:48:46.572Z,14.40
2023-05-12T03:51:19.818Z,14.40
2023-05-12T03:53:54.748Z,14.40
2023-05-12T03:56:31.832Z,14.40
2023-05-12T03:59:04.506Z,14.40
2023-05-12T04:01:35.767Z,14.40
2023-05-12T04:04:11.266Z,14.40
2023-05-12T04:06:43.919Z,14.50
2023-05-12T04:09:18.897Z,14.50
2023-05-12T04:11:56.020Z,14.60
2023-05-12T04:14:42.387Z,14.60
2023-05-12T04:17:20.638Z,14.60
2023-05-12T04:20:05.822Z,14.60
2023-05-12T04:22:39.893Z,14.70
2023-05-12T04:25:10.125Z,14.70
2023-05-12T04:27:42.528Z,14.80
2023-05-12T04:30:21.878Z,14.80
2023-05-12T04:33:01.797Z,14.80
2023-05-12T04:35:42.626Z,14.80
2023-05-12T04:38:18.927Z,14.90
2023-05-12T04:40:49.837Z,14.80
2023-05-12T04:46:00.887Z,14.80
2023-05-12T04:48:32.721Z,14.80
2023-05-12T04:51:12.831Z,14.80
2023-05-12T04:53:44.185Z,14.80
2023-05-12T04:56:14.295Z,14.80
2023-05-12T04:58:49.306Z,14.80
2023-05-12T05:01:19.775Z,14.80
2023-05-12T05:03:53.266Z,14.80
2023-05-12T05:06:31.091Z,14.80
2023-05-12T05:09:07.057Z,14.80
2023-05-12T05:11:40.482Z,14.80
2023-05-12T05:14:08.800Z,14.70
2023-05-12T05:16:50.322Z,14.80
2023-05-12T05:19:27.979Z,14.90
2023-05-12T05:22:11.850Z,14.90
2023-05-12T05:24:49.303Z,14.90
2023-05-12T05:27:18.275Z,14.90
2023-05-12T05:29:51.246Z,14.90
2023-05-12T05:32:23.761Z,15.00
2023-05-12T05:34:56.970Z,15.00
2023-05-12T05:37:42.158Z,15.00
2023-05-12T05:40:22.271Z,14.90
2023-05-12T05:43:02.477Z,15.00
2023-05-12T05:45:35.386Z,15.00
2023-05-12T05:48:11.786Z,15.00
2023-05-12T05:50:51.227Z,15.10
2023-05-12T05:53:21.302Z,15.10
2023-05-12T05:55:49.197Z,15.10
2023-05-12T05:58:42.788Z,15.10
2023-05-12T06:01:21.812Z,15.20
2023-05-12T06:03:53.530Z,15.20
2023-05-12T06:06:26.452Z,15.20
2023-05-12T06:09:03.557Z,15.20
2023-05-12T06:11:37.688Z,15.10
2023-05-12T06:14:20.605Z,15.20
2023-05-12T06:16:49.877Z,15.20
2023-05-12T06:19:24.875Z,15.20
2023-05-12T06:21:54.935Z,15.10
2023-05-12T06:24:32.384Z,15.10
2023-05-12T06:27:05.353Z,15.10
2023-05-12T06:29:36.864Z,15.00
2023-05-12T06:32:16.442Z,15.00
2023-05-12T06:34:52.877Z,15.00
2023-05-12T06:37:28.922Z,15.00
2023-05-12T06:39:57.655Z,14.90
2023-05-12T06:42:39.579Z,14.90
2023-05-12T06:45:24.550Z,14.90
2023-05-12T06:47:58.721Z,14.80
2023-05-12T06:50:28.747Z,14.60
2023-05-12T06:52:57.352Z,14.60
2023-05-12T06:55:34.988Z,14.50
2023-05-12T06:58:06.984Z,14.50
2023-05-12T07:00:38.550Z,14.50
2023-05-12T07:03:10.639Z,14.40
2023-05-12T07:05:42.938Z,14.40
2023-05-12T07:08:10.783Z,14.40
2023-05-12T07:10:41.762Z,14.30
2023-05-12T07:13:15.962Z,14.30
2023-05-12T07:15:49.117Z,14.20
2023-05-12T07:18:22.461Z,14.30
2023-05-12T07:21:02.816Z,14.20
2023-05-12T07:23:31.789Z,14.20
2023-05-12T07:26:10.226Z,14.20
2023-05-12T07:28:43.312Z,14.10
2023-05-12T07:31:13.909Z,14.10
2023-05-12T07:33:46.988Z,14.00
2023-05-12T07:36:16.720Z,14.00
2023-05-12T07:38:44.809Z,14.00
2023-05-12T07:41:18.328Z,14.00
2023-05-12T07:43:49.700Z,13.90
2023-05-12T07:46:17.505Z,13.90
2023-05-12T07:48:56.774Z,13.90
2023-05-12T07:51:29.358Z,13.90
2023-05-12T07:54:06.062Z,13.80
2023-05-12T07:56:35.664Z,13.70
2023-05-12T07:59:12.485Z,13.80
2023-05-12T08:01:41.940Z,13.90
2023-05-12T08:04:12.176Z,13.80
2023-05-12T08:06:44.776Z,13.90
2023-05-12T08:09:18.198Z,13.90
2023-05-12T08:11:51.738Z,13.90
2023-05-12T08:14:30.076Z,13.80
2023-05-12T08:17:04.216Z,13.80
2023-05-12T08:19:32.820Z,13.80
2023-05-12T08:22:04.461Z,14.00
2023-05-12T08:24:36.000Z,14.10
2023-05-12T08:27:06.674Z,14.10
2023-05-12T08:29:40.476Z,14.00
2023-05-12T08:32:16.124Z,14.00
2023-05-12T08:34:47.633Z,14.00
2023-05-12T08:37:18.887Z,14.00
2023-05-12T08:39:50.118Z,13.90
2023-05-12T08:43:02.536Z,14.00
2023-05-12T08:45:36.675Z,14.00
2023-05-12T08:48:14.248Z,14.00
2023-05-12T08:50:48.230Z,14.00
2023-05-12T08:53:23.207Z,14.00
2023-05-12T08:57:09.722Z,14.00
2023-05-12T08:58:49.571Z,13.90
2023-05-12T09:01:36.079Z,13.90
2023-05-12T09:04:08.893Z,14.00
2023-05-12T09:06:51.754Z,14.10
2023-05-12T09:09:22.698Z,14.20
2023-05-12T09:12:11.455Z,14.30
2023-05-12T09:14:46.214Z,14.40
2023-05-12T09:17:16.787Z,14.50
2023-05-12T09:19:48.940Z,14.60
2023-05-12T09:22:19.882Z,14.60
2023-05-12T09:24:55.394Z,14.60
2023-05-12T09:27:28.691Z,14.60
2023-05-12T09:30:03.547Z,14.60
2023-05-12T09:32:37.538Z,14.60
2023-05-12T09:35:18.061Z,14.50
2023-05-12T09:37:47.695Z,14.50
2023-05-12T09:40:22.085Z,14.80
2023-05-12T09:42:50.564Z,15.10
2023-05-12T09:45:22.845Z,15.20
2023-05-12T09:47:53.731Z,15.40
2023-05-12T09:50:24.353Z,15.40
2023-05-12T09:52:56.039Z,15.40
2023-05-12T09:55:28.202Z,15.30
2023-05-12T09:58:15.390Z,15.30
2023-05-12T10:03:24.333Z,15.60
2023-05-12T10:06:20.569Z,15.60
2023-05-12T10:09:26.733Z,15.70
2023-05-12T10:12:04.190Z,15.80
2023-05-12T10:14:42.249Z,15.90
2023-05-12T10:17:11.001Z,16.10
2023-05-12T10:19:44.959Z,16.10
2023-05-12T10:22:18.256Z,16.10
2023-05-12T10:24:49.190Z,16.10
2023-05-12T10:27:23.675Z,16.20
2023-05-12T10:29:57.175Z,16.20
2023-05-12T10:32:36.074Z,16.10
2023-05-12T10:35:19.347Z,16.20
2023-05-12T10:37:55.876Z,16.20
2023-05-12T10:40:27.253Z,16.20
2023-05-12T10:43:02.800Z,16.20
2023-05-12T10:45:41.693Z,16.30
2023-05-12T10:48:18.309Z,16.50
2023-05-12T10:50:56.676Z,16.40
2023-05-12T10:53:41.479Z,16.60
2023-05-12T10:56:28.653Z,16.40
2023-05-12T10:59:37.024Z,16.60
2023-05-12T11:02:18.371Z,16.70
2023-05-12T11:05:04.210Z,16.70
2023-05-12T11:07:37.005Z,16.60
2023-05-12T11:10:15.381Z,16.50
2023-05-12T11:12:45.825Z,16.50
2023-05-12T11:15:17.793Z,16.40
2023-05-12T11:17:51.110Z,16.30
2023-05-12T11:20:28.080Z,16.20
2023-05-12T11:22:58.032Z,16.20
2023-05-12T11:25:39.048Z,16.20
2023-05-12T11:28:16.061Z,16.40
2023-05-12T11:30:56.687Z,16.50
2023-05-12T11:33:27.115Z,16.60
2023-05-12T11:36:05.049Z,16.80
2023-05-12T11:38:36.870Z,16.90
2023-05-12T11:41:09.221Z,16.70
2023-05-12T11:43:38.978Z,16.60
2023-05-12T11:46:12.295Z,16.60
2023-05-12T11:48:45.365Z,16.60
2023-05-12T11:51:16.091Z,16.60
2023-05-12T11:53:52.112Z,16.60
2023-05-12T11:56:32.126Z,16.70
2023-05-12T11:59:01.213Z,16.70
2023-05-12T12:01:34.818Z,16.80
2023-05-12T12:04:09.090Z,16.90
2023-05-12T12:06:48.224Z,17.10
2023-05-12T12:09:30.184Z,17.20
2023-05-12T12:12:02.667Z,17.20
2023-05-12T12:14:34.213Z,17.30
2023-05-12T12:17:07.511Z,17.30
2023-05-12T12:19:38.374Z,17.00
2023-05-12T12:22:14.792Z,16.80
2023-05-12T12:24:59.476Z,16.80
2023-05-12T12:27:34.821Z,16.80
2023-05-12T12:30:09.100Z,16.90
2023-05-12T12:32:46.131Z,16.90
2023-05-12T12:35:19.385Z,16.90
2023-05-12T12:37:52.394Z,17.00
2023-05-12T12:40:27.791Z,17.00
2023-05-12T12:43:08.182Z,16.90
2023-05-12T12:45:41.923Z,16.90
2023-05-12T12:48:11.372Z,17.00
2023-05-12T12:50:44.467Z,16.80
2023-05-12T12:53:19.687Z,16.80
2023-05-12T12:55:49.117Z,16.70
2023-05-12T12:58:21.969Z,16.60
2023-05-12T13:01:00.077Z,16.40
2023-05-12T13:03:29.774Z,16.40
2023-05-12T13:05:59.179Z,16.40
2023-05-12T13:08:31.810Z,16.40
2023-05-12T13:11:07.486Z,16.40
2023-05-12T13:13:41.723Z,16.40
2023-05-12T13:16:15.696Z,16.30
2023-05-12T13:18:52.542Z,16.40
2023-05-12T13:21:21.438Z,16.40
2023-05-12T13:23:54.108Z,16.40
2023-05-12T13:26:25.240Z,16.40
2023-05-12T13:29:06.461Z,16.40
2023-05-12T13:31:38.077Z,16.30
2023-05-12T13:34:09.447Z,16.30
2023-05-12T13:36:41.885Z,16.30
2023-05-12T13:39:17.305Z,16.30
2023-05-12T13:41:50.398Z,16.20
2023-05-12T13:44:21.300Z,16.20
2023-05-12T13:46:50.268Z,16.10
2023-05-12T13:49:29.918Z,16.10
2023-05-12T13:52:03.216Z,16.00
2023-05-12T13:54:34.242Z,16.00
2023-05-12T13:57:12.276Z,15.80
2023-05-12T13:59:43.850Z,15.80
2023-05-12T14:02:16.351Z,15.70
2023-05-12T14:04:48.977Z,15.60
2023-05-12T14:07:25.625Z,15.40
2023-05-12T14:10:09.781Z,15.40
2023-05-12T14:12:45.226Z,15.30
2023-05-12T14:15:32.229Z,15.30
2023-05-12T14:18:07.747Z,15.30
2023-05-12T14:20:43.057Z,15.30
2023-05-12T14:23:17.957Z,15.20
2023-05-12T14:25:46.581Z,15.10
2023-05-12T14:31:05.691Z,14.90
2023-05-12T14:33:37.614Z,14.90
2023-05-12T14:36:14.489Z,14.80
2023-05-12T14:38:50.584Z,14.80
2023-05-12T14:41:25.160Z,14.80
2023-05-12T14:43:56.862Z,14.80
2023-05-12T14:46:28.082Z,14.80
2023-05-12T14:48:59.397Z,14.80
2023-05-12T14:51:34.487Z,14.80
2023-05-12T14:54:15.076Z,14.80
2023-05-12T14:56:51.262Z,14.70
2023-05-12T14:59:32.013Z,14.60
2023-05-12T15:02:02.659Z,14.70
2023-05-12T15:04:31.602Z,14.60
2023-05-12T15:07:01.284Z,14.60
2023-05-12T15:09:30.876Z,14.60
2023-05-12T15:12:01.169Z,14.60
2023-05-12T15:14:42.137Z,14.60
2023-05-12T15:17:13.351Z,14.60
2023-05-12T15:19:43.293Z,14.70
2023-05-12T15:22:16.364Z,14.80
2023-05-12T15:24:46.588Z,14.90
2023-05-12T15:27:23.141Z,14.90
2023-05-12T15:29:55.245Z,14.90
2023-05-12T15:32:50.176Z,14.90
2023-05-12T15:35:20.226Z,14.90
2023-05-12T15:37:58.476Z,14.90
2023-05-12T15:40:35.977Z,14.90
2023-05-12T15:43:11.305Z,14.80
2023-05-12T15:45:44.949Z,14.80
2023-05-12T15:48:15.154Z,14.90
2023-05-12T15:50:52.568Z,15.00
2023-05-12T15:53:29.836Z,14.90
2023-05-12T15:56:02.486Z,14.90
2023-05-12T15:58:34.961Z,14.90
2023-05-12T16:01:05.861Z,15.00
2023-05-12T16:03:41.915Z,15.50
2023-05-12T16:06:10.975Z,15.90
2023-05-12T16:08:43.112Z,16.60
2023-05-12T16:11:18.360Z,16.90
2023-05-12T16:13:47.160Z,17.10
2023-05-12T16:16:20.152Z,17.40
2023-05-12T16:18:48.113Z,17.20
2023-05-12T16:21:25.004Z,17.00
2023-05-12T16:23:53.643Z,16.70
2023-05-12T16:26:24.639Z,16.40
2023-05-12T16:29:01.861Z,16.30
2023-05-12T16:31:32.487Z,16.20
2023-05-12T16:34:07.473Z,16.20
2023-05-12T16:36:49.878Z,16.00
2023-05-12T16:39:19.113Z,15.90
2023-05-12T16:41:47.627Z,15.70
2023-05-12T16:44:21.417Z,15.70
2023-05-12T16:46:51.469Z,15.60
2023-05-12T16:49:21.543Z,15.40
2023-05-12T16:51:55.470Z,15.20
2023-05-12T16:54:27.288Z,15.10
2023-05-12T16:57:00.246Z,15.00
2023-05-12T16:59:33.547Z,14.90
2023-05-12T17:02:05.396Z,14.90
2023-05-12T17:04:39.303Z,14.80
2023-05-12T17:07:14.245Z,14.80
2023-05-12T17:09:52.890Z,14.70
2023-05-12T17:12:22.988Z,14.60
2023-05-12T17:15:06.170Z,14.60
2023-05-12T17:17:44.814Z,14.50
2023-05-12T17:20:14.858Z,14.50
2023-05-12T17:22:53.089Z,14.50
2023-05-12T17:25:22.732Z,14.40
2023-05-12T17:27:57.544Z,14.40
2023-05-12T17:30:29.903Z,14.40
2023-05-12T17:33:04.919Z,14.30
2023-05-12T17:35:36.572Z,14.30
2023-05-12T17:38:08.948Z,14.20
2023-05-12T17:40:41.373Z,14.10
2023-05-12T17:43:15.472Z,14.10
2023-05-12T17:45:48.640Z,14.00
2023-05-12T17:48:20.457Z,14.00
2023-05-12T17:50:51.317Z,13.90
2023-05-12T17:53:24.438Z,13.90
2023-05-12T17:55:53.732Z,13.80
2023-05-12T17:58:30.346Z,13.80
2023-05-12T18:01:02.081Z,13.70
2023-05-12T18:03:49.131Z,13.70
2023-05-12T18:06:32.320Z,13.60
2023-05-12T18:09:08.291Z,13.60
2023-05-12T18:11:44.207Z,13.60
2023-05-12T18:14:19.816Z,13.60
2023-05-12T18:16:51.567Z,13.60
2023-05-12T18:19:23.850Z,13.60
2023-05-12T18:21:57.575Z,13.60
2023-05-12T18:24:28.513Z,13.50
2023-05-12T18:27:04.548Z,13.50
2023-05-12T18:29:40.395Z,13.50
2023-05-12T18:32:16.347Z,13.40
2023-05-12T18:34:47.301Z,13.40
2023-05-12T18:37:18.418Z,13.30
2023-05-12T18:39:54.909Z,13.30
2023-05-12T18:42:39.730Z,13.30
2023-05-12T18:45:11.541Z,13.20
2023-05-12T18:47:43.581Z,13.20
2023-05-12T18:50:18.450Z,13.20
2023-05-12T18:52:49.305Z,13.20
2023-05-12T18:55:19.934Z,13.10
2023-05-12T18:57:48.635Z,13.10
2023-05-12T19:00:25.125Z,13.10
2023-05-12T19:02:55.591Z,13.10
2023-05-12T19:05:26.313Z,13.10
2023-05-12T19:08:00.558Z,13.10
2023-05-12T19:10:31.245Z,13.10
2023-05-12T19:13:04.034Z,13.00
2023-05-12T19:15:36.887Z,13.00
2023-05-12T19:18:08.657Z,12.90
2023-05-12T19:20:39.894Z,13.00
2023-05-12T19:23:13.774Z,12.90
2023-05-12T19:25:48.082Z,12.90
2023-05-12T19:28:17.942Z,12.90
2023-05-12T19:30:58.648Z,12.90
2023-05-12T19:33:31.363Z,12.90
2023-05-12T19:36:04.818Z,12.90
2023-05-12T19:38:39.437Z,12.90
2023-05-12T19:41:11.747Z,12.90
2023-05-12T19:43:42.577Z,12.90
2023-05-12T19:46:19.860Z,12.90
2023-05-12T19:48:53.175Z,12.90
2023-05-12T19:51:29.668Z,12.90
2023-05-12T19:54:00.682Z,12.90
2023-05-12T19:56:43.161Z,12.90
2023-05-12T20:02:03.660Z,13.10
2023-05-12T20:04:35.576Z,13.10
2023-05-12T20:07:10.984Z,13.00
2023-05-12T20:09:39.924Z,13.10
2023-05-12T20:12:17.175Z,13.10
2023-05-12T20:14:50.484Z,13.10
2023-05-12T20:17:24.607Z,13.10
2023-05-12T20:19:54.798Z,13.10
2023-05-12T20:22:27.337Z,13.20
2023-05-12T20:25:05.729Z,13.20
2023-05-12T20:27:35.127Z,13.20
2023-05-12T20:30:03.939Z,13.30
2023-05-12T20:32:40.932Z,13.40
2023-05-12T20:35:11.433Z,13.40
2023-05-12T20:37:41.510Z,13.50
2023-05-12T20:40:25.343Z,13.50
2023-05-12T20:42:59.936Z,13.40
2023-05-12T20:45:31.653Z,13.40
2023-05-12T20:48:04.924Z,13.40
2023-05-12T20:50:39.125Z,13.40
2023-05-12T20:53:14.936Z,13.40
2023-05-12T20:55:48.567Z,13.50
2023-05-12T20:58:24.035Z,13.50
2023-05-12T21:00:57.266Z,13.50
2023-05-12T21:03:34.838Z,13.50
2023-05-12T21:06:06.984Z,13.50
2023-05-12T21:08:37.229Z,13.50
2023-05-12T21:11:17.975Z,13.60
2023-05-12T21:13:53.724Z,13.50
2023-05-12T21:16:24.142Z,13.50
2023-05-12T21:19:15.627Z,13.50
2023-05-12T21:21:47.630Z,13.50
2023-05-12T21:24:43.077Z,13.60
2023-05-12T21:27:13.175Z,13.50
2023-05-12T21:29:43.779Z,13.50
2023-05-12T21:32:18.005Z,13.50
2023-05-12T21:34:55.310Z,13.50
2023-05-12T21:37:25.424Z,13.50
2023-05-12T21:39:56.739Z,13.40
2023-05-12T21:42:27.158Z,13.40
2023-05-12T21:45:06.190Z,13.40
2023-05-12T21:47:40.088Z,13.40
2023-05-12T21:50:21.195Z,13.30
2023-05-12T21:52:59.774Z,13.30
2023-05-12T21:55:32.768Z,13.10
2023-05-12T21:58:03.488Z,13.00
2023-05-12T22:00:33.225Z,13.00
2023-05-12T22:03:05.480Z,12.90
2023-05-12T22:05:36.764Z,12.90
2023-05-12T22:08:06.727Z,12.80
2023-05-12T22:10:40.274Z,12.70
2023-05-12T22:13:17.402Z,12.80
2023-05-12T22:15:54.232Z,12.80
2023-05-12T22:18:31.364Z,12.80
2023-05-12T22:21:08.426Z,12.80
2023-05-12T22:23:41.259Z,12.80
2023-05-12T22:26:12.267Z,12.80
2023-05-12T22:28:44.028Z,12.80
2023-05-12T22:31:18.424Z,12.90
2023-05-12T22:33:48.451Z,12.80
2023-05-12T22:36:21.268Z,12.80
2023-05-12T22:38:54.444Z,12.80
2023-05-12T22:41:27.021Z,12.80
2023-05-12T22:43:59.006Z,12.80
2023-05-12T22:46:39.214Z,12.90
2023-05-12T22:49:10.878Z,12.80
2023-05-12T22:51:40.993Z,12.90
2023-05-12T22:54:17.111Z,12.90
2023-05-12T22:56:51.208Z,12.90
2023-05-12T22:59:23.567Z,13.00
2023-05-12T23:02:06.324Z,13.00
2023-05-12T23:04:38.288Z,13.00
2023-05-12T23:07:10.374Z,13.00
2023-05-12T23:09:45.114Z,13.10
2023-05-12T23:12:20.612Z,13.10
2023-05-12T23:14:50.718Z,13.10
2023-05-12T23:17:22.281Z,13.10
2023-05-12T23:20:05.277Z,13.10
2023-05-12T23:22:38.610Z,13.10
2023-05-12T23:25:10.695Z,13.10
2023-05-12T23:27:40.480Z,13.10
2023-05-12T23:30:10.695Z,13.10
2023-05-12T23:32:43.909Z,13.10
2023-05-12T23:35:18.274Z,13.10
2023-05-12T23:37:57.827Z,13.10
2023-05-12T23:40:32.964Z,13.10
2023-05-12T23:43:03.839Z,13.10
2023-05-12T23:45:37.806Z,13.20
2023-05-12T23:48:13.176Z,13.20
2023-05-12T23:50:43.379Z,13.20
2023-05-12T23:53:13.641Z,13.20
2023-05-12T23:55:49.595Z,13.20
2023-05-12T23:58:25.451Z,13.20
